sensor_id;sensor_type;location;lat;lon;timestamp;P1;durP1;ratioP1;P2;durP2;ratioP2
72125;SDS011;59999;51.676;22.650;2024-01-16T00:00:56;4.90;;;0.80;;
72125;SDS011;59999;51.676;22.650;2024-01-16T00:03:41;3.25;;;0.45;;
72125;SDS011;59999;51.676;22.650;2024-01-16T00:06:07;4.80;;;0.68;;
72125;SDS011;59999;51.676;22.650;2024-01-16T00:08:33;3.97;;;0.80;;
72125;SDS011;59999;51.676;22.650;2024-01-16T00:10:59;4.45;;;0.50;;
72125;SDS011;59999;51.676;22.650;2024-01-16T00:13:27;3.75;;;0.70;;
72125;SDS011;59999;51.676;22.650;2024-01-16T00:15:53;2.27;;;0.40;;
72125;SDS011;59999;51.676;22.650;2024-01-16T00:18:18;3.67;;;0.50;;
72125;SDS011;59999;51.676;22.650;2024-01-16T00:20:44;2.70;;;0.50;;
72125;SDS011;59999;51.676;22.650;2024-01-16T00:23:10;3.78;;;0.80;;
72125;SDS011;59999;51.676;22.650;2024-01-16T00:25:36;6.40;;;0.85;;
72125;SDS011;59999;51.676;22.650;2024-01-16T00:28:02;4.27;;;0.77;;
72125;SDS011;59999;51.676;22.650;2024-01-16T00:30:28;4.03;;;0.63;;
72125;SDS011;59999;51.676;22.650;2024-01-16T00:32:54;4.43;;;0.70;;
72125;SDS011;59999;51.676;22.650;2024-01-16T00:35:20;5.90;;;0.70;;
72125;SDS011;59999;51.676;22.650;2024-01-16T00:37:46;3.15;;;0.65;;
72125;SDS011;59999;51.676;22.650;2024-01-16T00:40:12;2.70;;;0.40;;
72125;SDS011;59999;51.676;22.650;2024-01-16T00:42:38;2.80;;;0.43;;
72125;SDS011;59999;51.676;22.650;2024-01-16T00:45:04;2.35;;;0.28;;
72125;SDS011;59999;51.676;22.650;2024-01-16T00:47:30;3.42;;;0.60;;
72125;SDS011;59999;51.676;22.650;2024-01-16T00:49:56;5.10;;;0.40;;
72125;SDS011;59999;51.676;22.650;2024-01-16T00:52:22;2.55;;;0.30;;
72125;SDS011;59999;51.676;22.650;2024-01-16T00:54:48;4.55;;;0.47;;
72125;SDS011;59999;51.676;22.650;2024-01-16T00:57:13;2.70;;;0.20;;
72125;SDS011;59999;51.676;22.650;2024-01-16T00:59:41;2.35;;;0.22;;
72125;SDS011;59999;51.676;22.650;2024-01-16T01:02:07;2.33;;;0.30;;
72125;SDS011;59999;51.676;22.650;2024-01-16T01:04:35;4.10;;;0.30;;
72125;SDS011;59999;51.676;22.650;2024-01-16T01:07:00;2.23;;;0.20;;
72125;SDS011;59999;51.676;22.650;2024-01-16T01:09:26;2.20;;;0.20;;
72125;SDS011;59999;51.676;22.650;2024-01-16T01:11:52;1.63;;;0.20;;
72125;SDS011;59999;51.676;22.650;2024-01-16T01:14:18;2.05;;;0.30;;
72125;SDS011;59999;51.676;22.650;2024-01-16T01:16:43;1.60;;;0.20;;
72125;SDS011;59999;51.676;22.650;2024-01-16T01:19:09;2.35;;;0.30;;
72125;SDS011;59999;51.676;22.650;2024-01-16T01:21:35;3.90;;;0.30;;
72125;SDS011;59999;51.676;22.650;2024-01-16T01:24:01;1.38;;;0.20;;
72125;SDS011;59999;51.676;22.650;2024-01-16T01:26:27;2.07;;;0.27;;
72125;SDS011;59999;51.676;22.650;2024-01-16T01:28:53;2.22;;;0.20;;
72125;SDS011;59999;51.676;22.650;2024-01-16T01:31:18;2.40;;;0.30;;
72125;SDS011;59999;51.676;22.650;2024-01-16T01:33:44;2.40;;;0.30;;
72125;SDS011;59999;51.676;22.650;2024-01-16T01:36:10;2.37;;;0.33;;
72125;SDS011;59999;51.676;22.650;2024-01-16T01:38:36;6.15;;;0.30;;
72125;SDS011;59999;51.676;22.650;2024-01-16T01:41:01;2.30;;;0.20;;
72125;SDS011;59999;51.676;22.650;2024-01-16T01:43:27;1.77;;;0.25;;
72125;SDS011;59999;51.676;22.650;2024-01-16T01:48:25;3.80;;;0.30;;
72125;SDS011;59999;51.676;22.650;2024-01-16T01:50:50;2.13;;;0.20;;
72125;SDS011;59999;51.676;22.650;2024-01-16T01:53:16;3.92;;;0.30;;
72125;SDS011;59999;51.676;22.650;2024-01-16T01:55:42;2.43;;;0.20;;
72125;SDS011;59999;51.676;22.650;2024-01-16T01:58:08;2.38;;;0.20;;
72125;SDS011;59999;51.676;22.650;2024-01-16T02:00:34;1.20;;;0.30;;
72125;SDS011;59999;51.676;22.650;2024-01-16T02:03:00;1.95;;;0.20;;
72125;SDS011;59999;51.676;22.650;2024-01-16T02:05:26;3.28;;;0.20;;
72125;SDS011;59999;51.676;22.650;2024-01-16T02:07:53;2.92;;;0.30;;
72125;SDS011;59999;51.676;22.650;2024-01-16T02:10:18;1.83;;;0.30;;
72125;SDS011;59999;51.676;22.650;2024-01-16T02:12:44;4.25;;;0.30;;
72125;SDS011;59999;51.676;22.650;2024-01-16T02:15:11;1.50;;;0.30;;
72125;SDS011;59999;51.676;22.650;2024-01-16T02:17:38;2.47;;;0.20;;
72125;SDS011;59999;51.676;22.650;2024-01-16T02:20:03;3.40;;;0.30;;
72125;SDS011;59999;51.676;22.650;2024-01-16T02:22:32;2.00;;;0.20;;
72125;SDS011;59999;51.676;22.650;2024-01-16T02:24:59;1.70;;;0.20;;
72125;SDS011;59999;51.676;22.650;2024-01-16T02:27:25;1.30;;;0.15;;
72125;SDS011;59999;51.676;22.650;2024-01-16T02:29:51;2.22;;;0.20;;
72125;SDS011;59999;51.676;22.650;2024-01-16T02:32:16;2.35;;;0.20;;
72125;SDS011;59999;51.676;22.650;2024-01-16T02:34:42;2.88;;;0.30;;
72125;SDS011;59999;51.676;22.650;2024-01-16T02:37:09;2.33;;;0.20;;
72125;SDS011;59999;51.676;22.650;2024-01-16T02:39:34;2.87;;;0.30;;
72125;SDS011;59999;51.676;22.650;2024-01-16T02:42:00;4.88;;;0.28;;
72125;SDS011;59999;51.676;22.650;2024-01-16T02:44:26;1.77;;;0.33;;
72125;SDS011;59999;51.676;22.650;2024-01-16T02:46:52;2.75;;;0.20;;
72125;SDS011;59999;51.676;22.650;2024-01-16T02:49:17;2.90;;;0.30;;
72125;SDS011;59999;51.676;22.650;2024-01-16T02:51:43;2.28;;;0.30;;
72125;SDS011;59999;51.676;22.650;2024-01-16T02:54:09;1.43;;;0.30;;
72125;SDS011;59999;51.676;22.650;2024-01-16T02:56:35;2.30;;;0.30;;
72125;SDS011;59999;51.676;22.650;2024-01-16T02:59:00;3.43;;;0.37;;
72125;SDS011;59999;51.676;22.650;2024-01-16T03:01:26;1.85;;;0.20;;
72125;SDS011;59999;51.676;22.650;2024-01-16T03:03:52;1.95;;;0.30;;
72125;SDS011;59999;51.676;22.650;2024-01-16T03:06:22;3.28;;;0.30;;
72125;SDS011;59999;51.676;22.650;2024-01-16T03:08:48;2.58;;;0.20;;
72125;SDS011;59999;51.676;22.650;2024-01-16T03:11:14;2.22;;;0.30;;
72125;SDS011;59999;51.676;22.650;2024-01-16T03:13:40;2.50;;;0.30;;
72125;SDS011;59999;51.676;22.650;2024-01-16T03:16:06;1.95;;;0.30;;
72125;SDS011;59999;51.676;22.650;2024-01-16T03:18:32;3.40;;;0.67;;
72125;SDS011;59999;51.676;22.650;2024-01-16T03:20:58;4.30;;;0.75;;
72125;SDS011;59999;51.676;22.650;2024-01-16T03:23:24;5.88;;;0.40;;
72125;SDS011;59999;51.676;22.650;2024-01-16T03:25:50;10.38;;;0.60;;
72125;SDS011;59999;51.676;22.650;2024-01-16T03:28:16;3.73;;;0.30;;
72125;SDS011;59999;51.676;22.650;2024-01-16T03:30:42;1.90;;;0.20;;
72125;SDS011;59999;51.676;22.650;2024-01-16T03:33:07;3.13;;;0.43;;
72125;SDS011;59999;51.676;22.650;2024-01-16T03:35:33;2.30;;;0.30;;
72125;SDS011;59999;51.676;22.650;2024-01-16T03:37:59;4.10;;;0.30;;
72125;SDS011;59999;51.676;22.650;2024-01-16T03:40:25;2.70;;;0.40;;
72125;SDS011;59999;51.676;22.650;2024-01-16T03:42:50;2.73;;;0.40;;
72125;SDS011;59999;51.676;22.650;2024-01-16T03:45:16;1.80;;;0.20;;
72125;SDS011;59999;51.676;22.650;2024-01-16T03:47:42;2.37;;;0.20;;
72125;SDS011;59999;51.676;22.650;2024-01-16T03:50:08;1.45;;;0.22;;
72125;SDS011;59999;51.676;22.650;2024-01-16T03:52:34;2.70;;;0.30;;
72125;SDS011;59999;51.676;22.650;2024-01-16T03:55:00;3.00;;;0.28;;
72125;SDS011;59999;51.676;22.650;2024-01-16T03:57:25;3.00;;;0.40;;
72125;SDS011;59999;51.676;22.650;2024-01-16T03:59:51;1.83;;;0.30;;
72125;SDS011;59999;51.676;22.650;2024-01-16T04:02:17;3.13;;;0.30;;
72125;SDS011;59999;51.676;22.650;2024-01-16T04:04:43;2.90;;;0.30;;
72125;SDS011;59999;51.676;22.650;2024-01-16T04:07:09;3.50;;;0.40;;
72125;SDS011;59999;51.676;22.650;2024-01-16T04:09:34;2.28;;;0.30;;
72125;SDS011;59999;51.676;22.650;2024-01-16T04:12:00;2.73;;;0.30;;
72125;SDS011;59999;51.676;22.650;2024-01-16T04:14:26;2.20;;;0.28;;
72125;SDS011;59999;51.676;22.650;2024-01-16T04:16:52;1.87;;;0.30;;
72125;SDS011;59999;51.676;22.650;2024-01-16T04:19:18;4.35;;;0.60;;
72125;SDS011;59999;51.676;22.650;2024-01-16T04:21:43;3.20;;;0.50;;
72125;SDS011;59999;51.676;22.650;2024-01-16T04:24:09;2.13;;;0.30;;
72125;SDS011;59999;51.676;22.650;2024-01-16T04:26:35;2.43;;;0.27;;
72125;SDS011;59999;51.676;22.650;2024-01-16T04:29:03;2.10;;;0.30;;
72125;SDS011;59999;51.676;22.650;2024-01-16T04:31:29;3.70;;;0.30;;
72125;SDS011;59999;51.676;22.650;2024-01-16T04:33:55;2.20;;;0.40;;
72125;SDS011;59999;51.676;22.650;2024-01-16T04:36:21;2.33;;;0.38;;
72125;SDS011;59999;51.676;22.650;2024-01-16T04:38:47;2.30;;;0.40;;
72125;SDS011;59999;51.676;22.650;2024-01-16T04:41:12;6.17;;;0.50;;
72125;SDS011;59999;51.676;22.650;2024-01-16T04:43:38;2.30;;;0.35;;
72125;SDS011;59999;51.676;22.650;2024-01-16T04:46:04;2.20;;;0.40;;
72125;SDS011;59999;51.676;22.650;2024-01-16T04:48:30;3.45;;;0.60;;
72125;SDS011;59999;51.676;22.650;2024-01-16T04:50:55;3.37;;;0.60;;
72125;SDS011;59999;51.676;22.650;2024-01-16T04:53:22;2.28;;;0.38;;
72125;SDS011;59999;51.676;22.650;2024-01-16T04:55:48;3.40;;;0.50;;
72125;SDS011;59999;51.676;22.650;2024-01-16T04:58:14;3.63;;;0.50;;
72125;SDS011;59999;51.676;22.650;2024-01-16T05:00:40;3.30;;;0.50;;
72125;SDS011;59999;51.676;22.650;2024-01-16T05:03:06;4.23;;;0.80;;
72125;SDS011;59999;51.676;22.650;2024-01-16T05:05:32;3.63;;;0.40;;
72125;SDS011;59999;51.676;22.650;2024-01-16T05:08:00;3.33;;;0.60;;
72125;SDS011;59999;51.676;22.650;2024-01-16T05:10:26;3.85;;;0.50;;
72125;SDS011;59999;51.676;22.650;2024-01-16T05:12:52;5.28;;;0.50;;
72125;SDS011;59999;51.676;22.650;2024-01-16T05:15:18;4.80;;;0.60;;
72125;SDS011;59999;51.676;22.650;2024-01-16T05:17:43;2.55;;;0.50;;
72125;SDS011;59999;51.676;22.650;2024-01-16T05:20:09;4.40;;;0.70;;
72125;SDS011;59999;51.676;22.650;2024-01-16T05:22:36;3.00;;;0.57;;
72125;SDS011;59999;51.676;22.650;2024-01-16T05:25:03;4.00;;;0.77;;
72125;SDS011;59999;51.676;22.650;2024-01-16T05:27:29;6.55;;;1.35;;
72125;SDS011;59999;51.676;22.650;2024-01-16T05:29:56;6.47;;;1.60;;
72125;SDS011;59999;51.676;22.650;2024-01-16T05:32:22;10.02;;;1.60;;
72125;SDS011;59999;51.676;22.650;2024-01-16T05:34:48;8.23;;;1.52;;
72125;SDS011;59999;51.676;22.650;2024-01-16T05:37:13;4.90;;;1.20;;
72125;SDS011;59999;51.676;22.650;2024-01-16T05:39:39;6.40;;;1.15;;
72125;SDS011;59999;51.676;22.650;2024-01-16T05:42:05;5.30;;;0.83;;
72125;SDS011;59999;51.676;22.650;2024-01-16T05:44:31;3.83;;;0.80;;
72125;SDS011;59999;51.676;22.650;2024-01-16T05:46:57;3.78;;;0.60;;
72125;SDS011;59999;51.676;22.650;2024-01-16T05:49:23;4.43;;;0.60;;
72125;SDS011;59999;51.676;22.650;2024-01-16T05:51:48;3.75;;;0.77;;
72125;SDS011;59999;51.676;22.650;2024-01-16T05:54:14;4.03;;;1.00;;
72125;SDS011;59999;51.676;22.650;2024-01-16T05:56:40;3.67;;;0.70;;
72125;SDS011;59999;51.676;22.650;2024-01-16T05:59:06;5.20;;;1.30;;
72125;SDS011;59999;51.676;22.650;2024-01-16T06:01:32;5.60;;;0.95;;
72125;SDS011;59999;51.676;22.650;2024-01-16T06:03:58;7.55;;;1.30;;
72125;SDS011;59999;51.676;22.650;2024-01-16T06:06:25;5.45;;;0.90;;
72125;SDS011;59999;51.676;22.650;2024-01-16T06:08:51;5.68;;;1.27;;
72125;SDS011;59999;51.676;22.650;2024-01-16T06:11:17;4.43;;;0.98;;
72125;SDS011;59999;51.676;22.650;2024-01-16T06:13:45;5.30;;;0.97;;
72125;SDS011;59999;51.676;22.650;2024-01-16T06:16:10;8.40;;;1.50;;
72125;SDS011;59999;51.676;22.650;2024-01-16T06:18:36;5.80;;;1.30;;
72125;SDS011;59999;51.676;22.650;2024-01-16T06:21:02;7.05;;;1.65;;
72125;SDS011;59999;51.676;22.650;2024-01-16T06:23:29;4.78;;;0.98;;
72125;SDS011;59999;51.676;22.650;2024-01-16T06:25:55;3.88;;;0.98;;
72125;SDS011;59999;51.676;22.650;2024-01-16T06:28:21;4.73;;;1.00;;
72125;SDS011;59999;51.676;22.650;2024-01-16T06:30:47;5.15;;;1.10;;
72125;SDS011;59999;51.676;22.650;2024-01-16T06:33:12;5.13;;;1.40;;
72125;SDS011;59999;51.676;22.650;2024-01-16T06:35:38;3.65;;;0.75;;
72125;SDS011;59999;51.676;22.650;2024-01-16T06:38:04;6.30;;;1.30;;
72125;SDS011;59999;51.676;22.650;2024-01-16T06:40:30;5.07;;;0.95;;
72125;SDS011;59999;51.676;22.650;2024-01-16T06:42:55;4.70;;;1.13;;
72125;SDS011;59999;51.676;22.650;2024-01-16T06:45:21;5.13;;;0.90;;
72125;SDS011;59999;51.676;22.650;2024-01-16T06:47:47;6.20;;;1.17;;
72125;SDS011;59999;51.676;22.650;2024-01-16T06:50:13;5.93;;;1.38;;
72125;SDS011;59999;51.676;22.650;2024-01-16T06:52:38;3.80;;;0.93;;
72125;SDS011;59999;51.676;22.650;2024-01-16T06:55:04;3.95;;;0.80;;
72125;SDS011;59999;51.676;22.650;2024-01-16T06:57:30;5.15;;;1.00;;
72125;SDS011;59999;51.676;22.650;2024-01-16T06:59:56;5.43;;;1.00;;
72125;SDS011;59999;51.676;22.650;2024-01-16T07:02:21;3.70;;;1.00;;
72125;SDS011;59999;51.676;22.650;2024-01-16T07:04:48;4.37;;;1.00;;
72125;SDS011;59999;51.676;22.650;2024-01-16T07:07:13;5.28;;;1.42;;
72125;SDS011;59999;51.676;22.650;2024-01-16T07:09:39;10.33;;;2.10;;
72125;SDS011;59999;51.676;22.650;2024-01-16T07:12:05;9.68;;;1.90;;
72125;SDS011;59999;51.676;22.650;2024-01-16T07:14:32;9.45;;;2.53;;
72125;SDS011;59999;51.676;22.650;2024-01-16T07:16:57;12.20;;;3.97;;
72125;SDS011;59999;51.676;22.650;2024-01-16T07:19:24;15.07;;;4.35;;
72125;SDS011;59999;51.676;22.650;2024-01-16T07:21:50;16.33;;;4.68;;
72125;SDS011;59999;51.676;22.650;2024-01-16T07:24:16;15.10;;;2.90;;
72125;SDS011;59999;51.676;22.650;2024-01-16T07:26:41;12.70;;;3.83;;
72125;SDS011;59999;51.676;22.650;2024-01-16T07:29:07;29.07;;;9.70;;
72125;SDS011;59999;51.676;22.650;2024-01-16T07:31:33;91.88;;;23.90;;
72125;SDS011;59999;51.676;22.650;2024-01-16T07:33:59;58.75;;;16.70;;
72125;SDS011;59999;51.676;22.650;2024-01-16T07:36:25;33.77;;;9.27;;
72125;SDS011;59999;51.676;22.650;2024-01-16T07:38:51;24.52;;;6.90;;
72125;SDS011;59999;51.676;22.650;2024-01-16T07:41:16;24.50;;;7.87;;
72125;SDS011;59999;51.676;22.650;2024-01-16T07:43:42;17.70;;;5.20;;
72125;SDS011;59999;51.676;22.650;2024-01-16T07:46:08;26.83;;;8.73;;
72125;SDS011;59999;51.676;22.650;2024-01-16T07:48:34;27.83;;;10.20;;
72125;SDS011;59999;51.676;22.650;2024-01-16T07:50:59;35.13;;;11.17;;
72125;SDS011;59999;51.676;22.650;2024-01-16T07:53:25;35.85;;;11.90;;
72125;SDS011;59999;51.676;22.650;2024-01-16T07:55:53;23.85;;;7.82;;
72125;SDS011;59999;51.676;22.650;2024-01-16T07:58:20;22.63;;;6.87;;
72125;SDS011;59999;51.676;22.650;2024-01-16T08:00:46;22.83;;;6.82;;
72125;SDS011;59999;51.676;22.650;2024-01-16T08:03:13;19.13;;;5.80;;
72125;SDS011;59999;51.676;22.650;2024-01-16T08:05:39;38.65;;;9.98;;
72125;SDS011;59999;51.676;22.650;2024-01-16T08:08:08;22.30;;;6.55;;
72125;SDS011;59999;51.676;22.650;2024-01-16T08:10:37;22.73;;;7.43;;
72125;SDS011;59999;51.676;22.650;2024-01-16T08:13:03;23.85;;;5.88;;
72125;SDS011;59999;51.676;22.650;2024-01-16T08:15:29;30.73;;;9.63;;
72125;SDS011;59999;51.676;22.650;2024-01-16T08:17:55;18.00;;;6.28;;
72125;SDS011;59999;51.676;22.650;2024-01-16T08:20:20;27.63;;;8.07;;
72125;SDS011;59999;51.676;22.650;2024-01-16T08:22:46;40.55;;;12.05;;
72125;SDS011;59999;51.676;22.650;2024-01-16T08:25:12;29.90;;;8.97;;
72125;SDS011;59999;51.676;22.650;2024-01-16T08:27:38;22.17;;;5.57;;
72125;SDS011;59999;51.676;22.650;2024-01-16T08:30:04;22.38;;;7.95;;
72125;SDS011;59999;51.676;22.650;2024-01-16T08:32:31;36.58;;;13.25;;
72125;SDS011;59999;51.676;22.650;2024-01-16T08:34:57;24.40;;;8.40;;
72125;SDS011;59999;51.676;22.650;2024-01-16T08:37:23;25.17;;;8.23;;
72125;SDS011;59999;51.676;22.650;2024-01-16T08:39:50;21.95;;;6.78;;
72125;SDS011;59999;51.676;22.650;2024-01-16T08:42:17;20.73;;;6.85;;
72125;SDS011;59999;51.676;22.650;2024-01-16T08:44:43;33.92;;;9.88;;
72125;SDS011;59999;51.676;22.650;2024-01-16T08:47:09;37.13;;;11.32;;
72125;SDS011;59999;51.676;22.650;2024-01-16T08:49:35;22.83;;;6.90;;
72125;SDS011;59999;51.676;22.650;2024-01-16T08:52:01;16.40;;;5.50;;
72125;SDS011;59999;51.676;22.650;2024-01-16T08:54:27;21.25;;;6.97;;
72125;SDS011;59999;51.676;22.650;2024-01-16T08:56:53;16.97;;;7.27;;
72125;SDS011;59999;51.676;22.650;2024-01-16T08:59:19;30.65;;;11.27;;
72125;SDS011;59999;51.676;22.650;2024-01-16T09:01:45;29.37;;;11.20;;
72125;SDS011;59999;51.676;22.650;2024-01-16T09:04:10;20.52;;;7.90;;
72125;SDS011;59999;51.676;22.650;2024-01-16T09:06:37;9.43;;;2.43;;
72125;SDS011;59999;51.676;22.650;2024-01-16T09:09:03;13.20;;;4.13;;
72125;SDS011;59999;51.676;22.650;2024-01-16T09:11:30;10.90;;;2.80;;
72125;SDS011;59999;51.676;22.650;2024-01-16T09:13:57;11.10;;;2.13;;
72125;SDS011;59999;51.676;22.650;2024-01-16T09:16:23;14.77;;;3.92;;
72125;SDS011;59999;51.676;22.650;2024-01-16T09:18:49;6.32;;;1.27;;
72125;SDS011;59999;51.676;22.650;2024-01-16T09:21:15;10.33;;;2.03;;
72125;SDS011;59999;51.676;22.650;2024-01-16T09:23:41;9.55;;;1.77;;
72125;SDS011;59999;51.676;22.650;2024-01-16T09:26:07;44.53;;;11.35;;
72125;SDS011;59999;51.676;22.650;2024-01-16T09:28:33;18.10;;;4.27;;
72125;SDS011;59999;51.676;22.650;2024-01-16T09:30:59;11.88;;;2.70;;
72125;SDS011;59999;51.676;22.650;2024-01-16T09:33:25;17.20;;;4.40;;
72125;SDS011;59999;51.676;22.650;2024-01-16T09:35:51;25.85;;;5.55;;
72125;SDS011;59999;51.676;22.650;2024-01-16T09:38:17;63.78;;;16.90;;
72125;SDS011;59999;51.676;22.650;2024-01-16T09:40:43;54.40;;;14.43;;
72125;SDS011;59999;51.676;22.650;2024-01-16T09:43:09;23.97;;;5.40;;
72125;SDS011;59999;51.676;22.650;2024-01-16T09:45:37;41.13;;;10.07;;
72125;SDS011;59999;51.676;22.650;2024-01-16T09:48:03;14.75;;;2.97;;
72125;SDS011;59999;51.676;22.650;2024-01-16T09:50:30;8.45;;;1.63;;
72125;SDS011;59999;51.676;22.650;2024-01-16T09:52:56;10.13;;;2.00;;
72125;SDS011;59999;51.676;22.650;2024-01-16T09:55:22;9.02;;;1.73;;
72125;SDS011;59999;51.676;22.650;2024-01-16T09:57:49;14.23;;;2.65;;
72125;SDS011;59999;51.676;22.650;2024-01-16T10:00:19;9.50;;;1.63;;
72125;SDS011;59999;51.676;22.650;2024-01-16T10:02:45;11.52;;;2.15;;
72125;SDS011;59999;51.676;22.650;2024-01-16T10:05:12;9.73;;;3.30;;
72125;SDS011;59999;51.676;22.650;2024-01-16T10:07:40;8.00;;;1.42;;
72125;SDS011;59999;51.676;22.650;2024-01-16T10:10:11;8.30;;;2.03;;
72125;SDS011;59999;51.676;22.650;2024-01-16T10:12:37;9.13;;;1.50;;
72125;SDS011;59999;51.676;22.650;2024-01-16T10:15:08;7.93;;;2.03;;
72125;SDS011;59999;51.676;22.650;2024-01-16T10:17:43;7.20;;;1.70;;
72125;SDS011;59999;51.676;22.650;2024-01-16T10:20:09;8.23;;;1.75;;
72125;SDS011;59999;51.676;22.650;2024-01-16T10:22:39;9.68;;;2.08;;
72125;SDS011;59999;51.676;22.650;2024-01-16T10:25:06;9.77;;;1.70;;
72125;SDS011;59999;51.676;22.650;2024-01-16T10:27:34;10.18;;;2.15;;
72125;SDS011;59999;51.676;22.650;2024-01-16T10:30:00;9.35;;;1.58;;
72125;SDS011;59999;51.676;22.650;2024-01-16T10:32:28;7.15;;;1.63;;
72125;SDS011;59999;51.676;22.650;2024-01-16T10:35:05;6.72;;;1.63;;
72125;SDS011;59999;51.676;22.650;2024-01-16T10:37:41;12.30;;;1.60;;
72125;SDS011;59999;51.676;22.650;2024-01-16T10:40:20;12.70;;;2.22;;
72125;SDS011;59999;51.676;22.650;2024-01-16T10:43:03;18.95;;;2.60;;
72125;SDS011;59999;51.676;22.650;2024-01-16T10:45:30;116.15;;;44.22;;
72125;SDS011;59999;51.676;22.650;2024-01-16T10:48:05;68.78;;;31.15;;
72125;SDS011;59999;51.676;22.650;2024-01-16T10:50:33;36.97;;;15.43;;
72125;SDS011;59999;51.676;22.650;2024-01-16T10:53:03;74.55;;;34.03;;
72125;SDS011;59999;51.676;22.650;2024-01-16T10:55:30;46.47;;;23.80;;
72125;SDS011;59999;51.676;22.650;2024-01-16T10:57:59;18.17;;;9.98;;
72125;SDS011;59999;51.676;22.650;2024-01-16T11:00:28;22.25;;;12.40;;
72125;SDS011;59999;51.676;22.650;2024-01-16T11:03:01;21.77;;;10.73;;
72125;SDS011;59999;51.676;22.650;2024-01-16T11:05:32;11.38;;;5.57;;
72125;SDS011;59999;51.676;22.650;2024-01-16T11:07:59;11.93;;;2.85;;
72125;SDS011;59999;51.676;22.650;2024-01-16T11:10:29;12.35;;;2.10;;
72125;SDS011;59999;51.676;22.650;2024-01-16T11:12:59;6.05;;;1.55;;
72125;SDS011;59999;51.676;22.650;2024-01-16T11:15:27;8.73;;;1.73;;
72125;SDS011;59999;51.676;22.650;2024-01-16T11:17:57;10.38;;;2.10;;
72125;SDS011;59999;51.676;22.650;2024-01-16T11:20:25;26.38;;;16.83;;
72125;SDS011;59999;51.676;22.650;2024-01-16T11:22:52;20.02;;;9.20;;
72125;SDS011;59999;51.676;22.650;2024-01-16T11:25:31;8.65;;;2.03;;
72125;SDS011;59999;51.676;22.650;2024-01-16T11:28:10;7.30;;;1.40;;
72125;SDS011;59999;51.676;22.650;2024-01-16T11:30:39;9.52;;;3.20;;
72125;SDS011;59999;51.676;22.650;2024-01-16T11:33:06;9.77;;;2.30;;
72125;SDS011;59999;51.676;22.650;2024-01-16T11:35:32;9.10;;;2.00;;
72125;SDS011;59999;51.676;22.650;2024-01-16T11:38:09;9.90;;;2.22;;
72125;SDS011;59999;51.676;22.650;2024-01-16T11:40:40;13.80;;;2.37;;
72125;SDS011;59999;51.676;22.650;2024-01-16T11:46:11;6.03;;;1.38;;
72125;SDS011;59999;51.676;22.650;2024-01-16T11:48:37;6.67;;;0.90;;
72125;SDS011;59999;51.676;22.650;2024-01-16T11:51:37;4.75;;;0.93;;
72125;SDS011;59999;51.676;22.650;2024-01-16T11:53:56;7.07;;;1.15;;
72125;SDS011;59999;51.676;22.650;2024-01-16T12:02:01;6.20;;;1.13;;
72125;SDS011;59999;51.676;22.650;2024-01-16T12:04:30;4.13;;;0.73;;
72125;SDS011;59999;51.676;22.650;2024-01-16T12:06:59;4.63;;;0.93;;
72125;SDS011;59999;51.676;22.650;2024-01-16T12:09:25;5.95;;;0.80;;
72125;SDS011;59999;51.676;22.650;2024-01-16T12:11:59;5.07;;;1.00;;
72125;SDS011;59999;51.676;22.650;2024-01-16T12:14:26;6.30;;;1.30;;
72125;SDS011;59999;51.676;22.650;2024-01-16T12:16:58;5.22;;;1.05;;
72125;SDS011;59999;51.676;22.650;2024-01-16T12:19:34;5.70;;;1.20;;
72125;SDS011;59999;51.676;22.650;2024-01-16T12:22:00;5.20;;;0.80;;
72125;SDS011;59999;51.676;22.650;2024-01-16T12:24:26;5.40;;;1.20;;
72125;SDS011;59999;51.676;22.650;2024-01-16T12:26:52;5.35;;;1.02;;
72125;SDS011;59999;51.676;22.650;2024-01-16T12:29:18;5.35;;;0.95;;
72125;SDS011;59999;51.676;22.650;2024-01-16T12:31:44;3.33;;;0.50;;
72125;SDS011;59999;51.676;22.650;2024-01-16T12:34:10;4.63;;;0.60;;
72125;SDS011;59999;51.676;22.650;2024-01-16T12:36:36;6.50;;;1.10;;
72125;SDS011;59999;51.676;22.650;2024-01-16T12:39:03;17.07;;;3.90;;
72125;SDS011;59999;51.676;22.650;2024-01-16T12:41:33;45.40;;;12.13;;
72125;SDS011;59999;51.676;22.650;2024-01-16T12:44:02;26.33;;;8.02;;
72125;SDS011;59999;51.676;22.650;2024-01-16T12:46:28;12.85;;;3.95;;
72125;SDS011;59999;51.676;22.650;2024-01-16T12:49:00;8.30;;;2.50;;
72125;SDS011;59999;51.676;22.650;2024-01-16T12:51:29;11.13;;;2.80;;
72125;SDS011;59999;51.676;22.650;2024-01-16T12:54:09;7.37;;;1.70;;
72125;SDS011;59999;51.676;22.650;2024-01-16T12:56:38;9.52;;;2.90;;
72125;SDS011;59999;51.676;22.650;2024-01-16T12:59:10;16.17;;;4.00;;
72125;SDS011;59999;51.676;22.650;2024-01-16T13:01:40;8.50;;;1.85;;
72125;SDS011;59999;51.676;22.650;2024-01-16T13:04:11;15.18;;;3.35;;
72125;SDS011;59999;51.676;22.650;2024-01-16T13:06:39;10.80;;;1.93;;
72125;SDS011;59999;51.676;22.650;2024-01-16T13:09:11;8.65;;;1.40;;
72125;SDS011;59999;51.676;22.650;2024-01-16T13:11:51;19.15;;;4.78;;
72125;SDS011;59999;51.676;22.650;2024-01-16T13:14:20;17.13;;;3.45;;
72125;SDS011;59999;51.676;22.650;2024-01-16T13:16:50;9.35;;;1.73;;
72125;SDS011;59999;51.676;22.650;2024-01-16T13:19:18;7.90;;;1.90;;
72125;SDS011;59999;51.676;22.650;2024-01-16T13:21:44;10.00;;;1.42;;
72125;SDS011;59999;51.676;22.650;2024-01-16T13:24:10;11.98;;;2.38;;
72125;SDS011;59999;51.676;22.650;2024-01-16T13:26:36;8.53;;;1.27;;
72125;SDS011;59999;51.676;22.650;2024-01-16T13:29:02;4.40;;;0.65;;
72125;SDS011;59999;51.676;22.650;2024-01-16T13:31:29;7.93;;;1.35;;
72125;SDS011;59999;51.676;22.650;2024-01-16T13:33:55;5.90;;;1.43;;
72125;SDS011;59999;51.676;22.650;2024-01-16T13:36:22;6.55;;;1.10;;
72125;SDS011;59999;51.676;22.650;2024-01-16T13:38:48;6.18;;;0.75;;
72125;SDS011;59999;51.676;22.650;2024-01-16T13:41:14;6.75;;;0.88;;
72125;SDS011;59999;51.676;22.650;2024-01-16T13:43:40;5.30;;;0.80;;
72125;SDS011;59999;51.676;22.650;2024-01-16T13:46:06;5.27;;;0.90;;
72125;SDS011;59999;51.676;22.650;2024-01-16T13:48:34;5.63;;;1.25;;
72125;SDS011;59999;51.676;22.650;2024-01-16T13:51:00;7.25;;;1.05;;
72125;SDS011;59999;51.676;22.650;2024-01-16T13:53:26;6.60;;;1.57;;
72125;SDS011;59999;51.676;22.650;2024-01-16T13:55:53;6.47;;;1.48;;
72125;SDS011;59999;51.676;22.650;2024-01-16T13:58:18;9.93;;;2.25;;
72125;SDS011;59999;51.676;22.650;2024-01-16T14:00:44;11.33;;;3.10;;
72125;SDS011;59999;51.676;22.650;2024-01-16T14:03:10;11.18;;;2.80;;
72125;SDS011;59999;51.676;22.650;2024-01-16T14:05:36;12.63;;;3.70;;
72125;SDS011;59999;51.676;22.650;2024-01-16T14:08:02;9.60;;;2.30;;
72125;SDS011;59999;51.676;22.650;2024-01-16T14:10:28;10.60;;;2.47;;
72125;SDS011;59999;51.676;22.650;2024-01-16T14:12:54;6.70;;;1.43;;
72125;SDS011;59999;51.676;22.650;2024-01-16T14:15:21;7.10;;;1.30;;
72125;SDS011;59999;51.676;22.650;2024-01-16T14:17:54;8.43;;;1.80;;
72125;SDS011;59999;51.676;22.650;2024-01-16T14:20:21;10.20;;;2.00;;
72125;SDS011;59999;51.676;22.650;2024-01-16T14:22:50;10.67;;;2.87;;
72125;SDS011;59999;51.676;22.650;2024-01-16T14:25:17;12.48;;;2.65;;
72125;SDS011;59999;51.676;22.650;2024-01-16T14:27:45;14.93;;;3.60;;
72125;SDS011;59999;51.676;22.650;2024-01-16T14:30:14;29.00;;;8.13;;
72125;SDS011;59999;51.676;22.650;2024-01-16T14:32:41;40.47;;;16.20;;
72125;SDS011;59999;51.676;22.650;2024-01-16T14:35:11;64.90;;;24.43;;
72125;SDS011;59999;51.676;22.650;2024-01-16T14:37:38;24.08;;;7.85;;